sensor_id;sensor_type;location;lat;lon;timestamp;temperature;humidity
27368;DHT22;14839;48.106;11.618;2022-11-15T05:02:06;1.00;94.60
27368;DHT22;14839;48.106;11.618;2022-11-15T05:04:32;0.90;94.60
27368;DHT22;14839;48.106;11.618;2022-11-15T05:06:58;0.90;94.60
27368;DHT22;14839;48.106;11.618;2022-11-15T05:09:23;0.90;94.60
27368;DHT22;14839;48.106;11.618;2022-11-15T05:11:49;1.00;94.60
27368;DHT22;14839;48.106;11.618;2022-11-15T05:14:15;1.00;94.60
27368;DHT22;14839;48.106;11.618;2022-11-15T05:16:41;1.00;94.60
27368;DHT22;14839;48.106;11.618;2022-11-15T05:19:07;1.00;94.60
27368;DHT22;14839;48.106;11.618;2022-11-15T05:21:33;1.10;94.60
27368;DHT22;14839;48.106;11.618;2022-11-15T05:23:59;1.00;94.60
27368;DHT22;14839;48.106;11.618;2022-11-15T05:26:25;1.00;94.60
27368;DHT22;14839;48.106;11.618;2022-11-15T05:28:55;1.00;94.60
27368;DHT22;14839;48.106;11.618;2022-11-15T05:31:22;1.00;94.60
27368;DHT22;14839;48.106;11.618;2022-11-15T05:33:49;1.10;94.60
27368;DHT22;14839;48.106;11.618;2022-11-15T05:36:48;1.10;94.60
27368;DHT22;14839;48.106;11.618;2022-11-15T05:39:13;1.10;94.60
27368;DHT22;14839;48.106;11.618;2022-11-15T05:41:46;1.10;94.60
27368;DHT22;14839;48.106;11.618;2022-11-15T05:44:15;1.20;94.60
27368;DHT22;14839;48.106;11.618;2022-11-15T05:46:42;1.20;94.60
27368;DHT22;14839;48.106;11.618;2022-11-15T05:49:12;1.20;94.60
27368;DHT22;14839;48.106;11.618;2022-11-15T05:51:39;1.20;94.60
27368;DHT22;14839;48.106;11.618;2022-11-15T05:54:06;1.20;94.60
27368;DHT22;14839;48.106;11.618;2022-11-15T05:56:32;1.10;94.60
27368;DHT22;14839;48.106;11.618;2022-11-15T05:58:58;1.10;94.60
27368;DHT22;14839;48.106;11.618;2022-11-15T06:01:26;1.10;94.60
27368;DHT22;14839;48.106;11.618;2022-11-15T06:03:52;1.00;94.60
27368;DHT22;14839;48.106;11.618;2022-11-15T06:06:18;1.00;94.60
27368;DHT22;14839;48.106;11.618;2022-11-15T06:08:44;1.00;94.60
27368;DHT22;14839;48.106;11.618;2022-11-15T06:11:09;1.00;94.60
27368;DHT22;14839;48.106;11.618;2022-11-15T06:13:35;1.00;94.60
27368;DHT22;14839;48.106;11.618;2022-11-15T06:16:01;1.10;94.60
27368;DHT22;14839;48.106;11.618;2022-11-15T06:18:26;1.10;94.60
27368;DHT22;14839;48.106;11.618;2022-11-15T06:20:52;1.20;94.60
27368;DHT22;14839;48.106;11.618;2022-11-15T06:23:18;1.20;94.60
27368;DHT22;14839;48.106;11.618;2022-11-15T06:25:44;1.20;94.60
27368;DHT22;14839;48.106;11.618;2022-11-15T06:28:09;1.20;94.60
27368;DHT22;14839;48.106;11.618;2022-11-15T06:30:35;1.20;94.60
27368;DHT22;14839;48.106;11.618;2022-11-15T06:33:02;1.20;94.60
27368;DHT22;14839;48.106;11.618;2022-11-15T06:35:29;1.20;94.60
27368;DHT22;14839;48.106;11.618;2022-11-15T06:37:55;1.30;94.60
27368;DHT22;14839;48.106;11.618;2022-11-15T06:40:21;1.40;94.60
27368;DHT22;14839;48.106;11.618;2022-11-15T06:42:47;1.40;94.60
27368;DHT22;14839;48.106;11.618;2022-11-15T06:45:12;1.50;94.60
27368;DHT22;14839;48.106;11.618;2022-11-15T06:47:45;1.50;94.60
27368;DHT22;14839;48.106;11.618;2022-11-15T06:50:12;1.50;94.60
27368;DHT22;14839;48.106;11.618;2022-11-15T06:52:37;1.60;94.60
27368;DHT22;14839;48.106;11.618;2022-11-15T06:55:03;1.60;94.60
27368;DHT22;14839;48.106;11.618;2022-11-15T06:57:28;1.70;94.60
27368;DHT22;14839;48.106;11.618;2022-11-15T06:59:54;1.80;94.60
27368;DHT22;14839;48.106;11.618;2022-11-15T07:02:20;2.00;94.60
27368;DHT22;14839;48.106;11.618;2022-11-15T07:04:45;1.90;94.60
27368;DHT22;14839;48.106;11.618;2022-11-15T07:07:11;2.00;94.60
27368;DHT22;14839;48.106;11.618;2022-11-15T07:09:36;2.00;94.60
27368;DHT22;14839;48.106;11.618;2022-11-15T07:12:02;2.10;94.60
27368;DHT22;14839;48.106;11.618;2022-11-15T07:14:28;2.10;94.60
27368;DHT22;14839;48.106;11.618;2022-11-15T07:16:53;2.20;94.60
27368;DHT22;14839;48.106;11.618;2022-11-15T07:19:19;2.30;94.60
27368;DHT22;14839;48.106;11.618;2022-11-15T07:21:44;2.40;94.60
27368;DHT22;14839;48.106;11.618;2022-11-15T07:24:10;2.40;94.60
27368;DHT22;14839;48.106;11.618;2022-11-15T07:26:35;2.50;94.60
27368;DHT22;14839;48.106;11.618;2022-11-15T07:29:01;2.60;94.60
27368;DHT22;14839;48.106;11.618;2022-11-15T07:31:27;2.70;94.60
27368;DHT22;14839;48.106;11.618;2022-11-15T07:33:52;2.90;94.60
27368;DHT22;14839;48.106;11.618;2022-11-15T07:36:18;3.10;94.60
27368;DHT22;14839;48.106;11.618;2022-11-15T07:38:43;3.40;94.60
27368;DHT22;14839;48.106;11.618;2022-11-15T07:41:09;3.80;94.60
27368;DHT22;14839;48.106;11.618;2022-11-15T07:43:35;4.40;94.60
27368;DHT22;14839;48.106;11.618;2022-11-15T07:46:06;5.10;94.60
27368;DHT22;14839;48.106;11.618;2022-11-15T07:48:35;5.80;94.60
27368;DHT22;14839;48.106;11.618;2022-11-15T07:51:01;6.40;94.60
27368;DHT22;14839;48.106;11.618;2022-11-15T07:53:26;6.60;94.60
27368;DHT22;14839;48.106;11.618;2022-11-15T07:55:52;7.10;94.60
27368;DHT22;14839;48.106;11.618;2022-11-15T07:58:19;7.20;92.80
27368;DHT22;14839;48.106;11.618;2022-11-15T08:00:45;7.60;92.40
27368;DHT22;14839;48.106;11.618;2022-11-15T08:03:13;8.10;91.90
27368;DHT22;14839;48.106;11.618;2022-11-15T08:05:40;8.20;91.10
27368;DHT22;14839;48.106;11.618;2022-11-15T08:08:06;8.30;90.40
27368;DHT22;14839;48.106;11.618;2022-11-15T08:10:33;8.40;90.70
27368;DHT22;14839;48.106;11.618;2022-11-15T08:13:07;9.00;89.50
27368;DHT22;14839;48.106;11.618;2022-11-15T08:15:34;9.70;86.30
27368;DHT22;14839;48.106;11.618;2022-11-15T08:18:14;9.80;84.10
27368;DHT22;14839;48.106;11.618;2022-11-15T08:20:40;9.80;82.10
27368;DHT22;14839;48.106;11.618;2022-11-15T08:23:06;9.80;82.40
27368;DHT22;14839;48.106;11.618;2022-11-15T08:25:34;10.20;83.00
27368;DHT22;14839;48.106;11.618;2022-11-15T08:28:03;10.70;80.30
27368;DHT22;14839;48.106;11.618;2022-11-15T08:30:29;10.60;80.20
27368;DHT22;14839;48.106;11.618;2022-11-15T08:32:57;11.20;78.10
27368;DHT22;14839;48.106;11.618;2022-11-15T08:35:24;11.50;77.20
27368;DHT22;14839;48.106;11.618;2022-11-15T08:37:50;12.10;76.10
27368;DHT22;14839;48.106;11.618;2022-11-15T08:40:17;12.10;75.80
27368;DHT22;14839;48.106;11.618;2022-11-15T08:42:46;12.60;75.80
27368;DHT22;14839;48.106;11.618;2022-11-15T08:45:12;12.50;75.20
27368;DHT22;14839;48.106;11.618;2022-11-15T08:47:38;12.60;74.90
27368;DHT22;14839;48.106;11.618;2022-11-15T08:50:04;12.90;72.40
27368;DHT22;14839;48.106;11.618;2022-11-15T08:52:29;13.00;72.50
27368;DHT22;14839;48.106;11.618;2022-11-15T08:54:55;13.30;70.90
27368;DHT22;14839;48.106;11.618;2022-11-15T08:57:20;13.40;69.80
27368;DHT22;14839;48.106;11.618;2022-11-15T08:59:46;13.50;69.80
27368;DHT22;14839;48.106;11.618;2022-11-15T09:02:13;13.90;68.90
27368;DHT22;14839;48.106;11.618;2022-11-15T09:04:43;14.30;72.40
27368;DHT22;14839;48.106;11.618;2022-11-15T09:07:10;14.10;69.70
27368;DHT22;14839;48.106;11.618;2022-11-15T09:09:36;13.80;71.00
27368;DHT22;14839;48.106;11.618;2022-11-15T09:12:02;13.30;71.20
27368;DHT22;14839;48.106;11.618;2022-11-15T09:14:28;13.40;71.50
27368;DHT22;14839;48.106;11.618;2022-11-15T09:16:53;13.50;71.60
27368;DHT22;14839;48.106;11.618;2022-11-15T09:19:19;13.60;71.20
27368;DHT22;14839;48.106;11.618;2022-11-15T09:21:45;13.50;73.30
27368;DHT22;14839;48.106;11.618;2022-11-15T09:24:10;13.60;71.30
27368;DHT22;14839;48.106;11.618;2022-11-15T09:26:36;13.70;69.20
27368;DHT22;14839;48.106;11.618;2022-11-15T09:29:02;13.80;70.10
27368;DHT22;14839;48.106;11.618;2022-11-15T09:31:28;14.10;68.90
27368;DHT22;14839;48.106;11.618;2022-11-15T09:33:55;14.50;66.50
27368;DHT22;14839;48.106;11.618;2022-11-15T09:36:20;14.60;66.10
27368;DHT22;14839;48.106;11.618;2022-11-15T09:38:46;14.40;66.40
27368;DHT22;14839;48.106;11.618;2022-11-15T09:49:02;14.10;67.70
27368;DHT22;14839;48.106;11.618;2022-11-15T09:51:34;13.60;69.40
27368;DHT22;14839;48.106;11.618;2022-11-15T09:57:14;13.30;73.00
27368;DHT22;14839;48.106;11.618;2022-11-15T09:59:54;13.00;73.10
27368;DHT22;14839;48.106;11.618;2022-11-15T10:05:22;13.50;73.60
27368;DHT22;14839;48.106;11.618;2022-11-15T10:08:03;13.80;71.00
27368;DHT22;14839;48.106;11.618;2022-11-15T10:10:49;13.90;70.70
27368;DHT22;14839;48.106;11.618;2022-11-15T10:13:28;13.70;72.50
27368;DHT22;14839;48.106;11.618;2022-11-15T10:16:12;13.90;69.80
27368;DHT22;14839;48.106;11.618;2022-11-15T10:21:38;14.20;70.40
27368;DHT22;14839;48.106;11.618;2022-11-15T10:24:13;14.00;69.10
27368;DHT22;14839;48.106;11.618;2022-11-15T10:26:48;13.40;71.00
27368;DHT22;14839;48.106;11.618;2022-11-15T10:29:21;13.30;72.80
27368;DHT22;14839;48.106;11.618;2022-11-15T10:31:47;13.40;72.80
27368;DHT22;14839;48.106;11.618;2022-11-15T10:36:55;13.40;72.10
27368;DHT22;14839;48.106;11.618;2022-11-15T10:39:21;13.10;73.10
27368;DHT22;14839;48.106;11.618;2022-11-15T10:41:47;13.10;74.50
27368;DHT22;14839;48.106;11.618;2022-11-15T10:44:28;13.10;74.60
27368;DHT22;14839;48.106;11.618;2022-11-15T10:49:23;13.40;73.70
27368;DHT22;14839;48.106;11.618;2022-11-15T10:57:19;13.40;72.80
27368;DHT22;14839;48.106;11.618;2022-11-15T10:59:57;13.60;74.80
27368;DHT22;14839;48.106;11.618;2022-11-15T11:02:38;13.80;70.60
27368;DHT22;14839;48.106;11.618;2022-11-15T11:05:24;13.70;67.90
27368;DHT22;14839;48.106;11.618;2022-11-15T11:07:57;13.60;68.80
27368;DHT22;14839;48.106;11.618;2022-11-15T11:10:23;13.70;68.30
27368;DHT22;14839;48.106;11.618;2022-11-15T11:12:49;13.80;68.60
27368;DHT22;14839;48.106;11.618;2022-11-15T11:15:16;13.80;68.60
27368;DHT22;14839;48.106;11.618;2022-11-15T11:31:20;13.70;67.90
27368;DHT22;14839;48.106;11.618;2022-11-15T11:36:40;13.40;70.10
27368;DHT22;14839;48.106;11.618;2022-11-15T11:39:24;13.30;69.80
27368;DHT22;14839;48.106;11.618;2022-11-15T11:48:04;13.30;70.30
27368;DHT22;14839;48.106;11.618;2022-11-15T11:50:34;13.30;70.70
27368;DHT22;14839;48.106;11.618;2022-11-15T11:53:11;13.40;70.90
27368;DHT22;14839;48.106;11.618;2022-11-15T11:55:47;13.30;69.10
27368;DHT22;14839;48.106;11.618;2022-11-15T11:58:34;13.20;69.40
27368;DHT22;14839;48.106;11.618;2022-11-15T12:01:26;13.20;70.30
27368;DHT22;14839;48.106;11.618;2022-11-15T12:04:20;13.40;69.70
27368;DHT22;14839;48.106;11.618;2022-11-15T12:07:03;13.50;69.40
27368;DHT22;14839;48.106;11.618;2022-11-15T12:09:58;13.60;69.70
27368;DHT22;14839;48.106;11.618;2022-11-15T12:13:18;13.60;70.90
27368;DHT22;14839;48.106;11.618;2022-11-15T12:15:42;13.70;69.70
27368;DHT22;14839;48.106;11.618;2022-11-15T12:18:12;13.70;70.60
27368;DHT22;14839;48.106;11.618;2022-11-15T12:21:04;13.60;71.20
27368;DHT22;14839;48.106;11.618;2022-11-15T12:23:31;13.70;71.20
27368;DHT22;14839;48.106;11.618;2022-11-15T12:26:10;13.60;71.00
27368;DHT22;14839;48.106;11.618;2022-11-15T12:28:59;13.70;70.70
27368;DHT22;14839;48.106;11.618;2022-11-15T12:31:45;13.70;71.50
27368;DHT22;14839;48.106;11.618;2022-11-15T12:36:49;13.80;71.30
27368;DHT22;14839;48.106;11.618;2022-11-15T12:39:16;13.80;71.20
27368;DHT22;14839;48.106;11.618;2022-11-15T12:41:43;13.80;70.40
27368;DHT22;14839;48.106;11.618;2022-11-15T12:44:58;13.70;71.20
27368;DHT22;14839;48.106;11.618;2022-11-15T12:59:52;13.90;70.70
27368;DHT22;14839;48.106;11.618;2022-11-15T13:02:22;13.90;70.60
27368;DHT22;14839;48.106;11.618;2022-11-15T13:04:50;13.90;69.70
27368;DHT22;14839;48.106;11.618;2022-11-15T13:10:07;13.90;69.80
27368;DHT22;14839;48.106;11.618;2022-11-15T13:17:49;13.90;70.10
27368;DHT22;14839;48.106;11.618;2022-11-15T13:23:00;14.00;70.60
27368;DHT22;14839;48.106;11.618;2022-11-15T13:30:41;14.00;70.30
27368;DHT22;14839;48.106;11.618;2022-11-15T13:33:25;14.00;71.00
27368;DHT22;14839;48.106;11.618;2022-11-15T13:35:56;14.00;70.70
27368;DHT22;14839;48.106;11.618;2022-11-15T13:40:49;14.00;71.50
27368;DHT22;14839;48.106;11.618;2022-11-15T13:48:37;13.90;72.20
27368;DHT22;14839;48.106;11.618;2022-11-15T13:51:05;13.90;72.10
27368;DHT22;14839;48.106;11.618;2022-11-15T13:53:33;13.80;72.70
27368;DHT22;14839;48.106;11.618;2022-11-15T13:56:01;13.90;72.50
27368;DHT22;14839;48.106;11.618;2022-11-15T13:58:29;13.90;72.50
27368;DHT22;14839;48.106;11.618;2022-11-15T14:01:03;13.90;72.80
27368;DHT22;14839;48.106;11.618;2022-11-15T14:03:46;13.80;73.10
27368;DHT22;14839;48.106;11.618;2022-11-15T14:06:15;13.80;73.70
27368;DHT22;14839;48.106;11.618;2022-11-15T14:08:57;13.60;74.80
27368;DHT22;14839;48.106;11.618;2022-11-15T14:11:23;13.60;74.50
27368;DHT22;14839;48.106;11.618;2022-11-15T14:16:35;13.50;74.60
27368;DHT22;14839;48.106;11.618;2022-11-15T14:19:02;13.40;73.90
27368;DHT22;14839;48.106;11.618;2022-11-15T14:21:28;13.40;73.70
27368;DHT22;14839;48.106;11.618;2022-11-15T14:26:41;13.30;76.00
27368;DHT22;14839;48.106;11.618;2022-11-15T14:29:28;13.30;74.60
27368;DHT22;14839;48.106;11.618;2022-11-15T14:32:05;13.30;74.50
27368;DHT22;14839;48.106;11.618;2022-11-15T14:34:37;13.20;75.70
27368;DHT22;14839;48.106;11.618;2022-11-15T14:37:02;13.10;76.70
27368;DHT22;14839;48.106;11.618;2022-11-15T14:39:28;13.00;76.60
27368;DHT22;14839;48.106;11.618;2022-11-15T14:41:53;12.90;76.40
27368;DHT22;14839;48.106;11.618;2022-11-15T14:44:19;12.70;77.00
27368;DHT22;14839;48.106;11.618;2022-11-15T14:46:46;12.60;78.40
27368;DHT22;14839;48.106;11.618;2022-11-15T14:49:13;12.40;80.20
27368;DHT22;14839;48.106;11.618;2022-11-15T14:51:39;12.20;81.40
27368;DHT22;14839;48.106;11.618;2022-11-15T14:54:05;12.00;82.30
27368;DHT22;14839;48.106;11.618;2022-11-15T14:56:30;11.80;83.90
27368;DHT22;14839;48.106;11.618;2022-11-15T14:58:56;11.70;84.40
27368;DHT22;14839;48.106;11.618;2022-11-15T15:01:25;11.50;86.50
27368;DHT22;14839;48.106;11.618;2022-11-15T15:03:51;11.30;87.40
27368;DHT22;14839;48.106;11.618;2022-11-15T15:06:18;11.20;88.00
27368;DHT22;14839;48.106;11.618;2022-11-15T15:08:44;11.00;89.00
27368;DHT22;14839;48.106;11.618;2022-11-15T15:11:14;10.80;89.50
27368;DHT22;14839;48.106;11.618;2022-11-15T15:13:41;10.70;90.10
27368;DHT22;14839;48.106;11.618;2022-11-15T15:16:06;10.50;90.70
27368;DHT22;14839;48.106;11.618;2022-11-15T15:18:32;10.40;91.20
27368;DHT22;14839;48.106;11.618;2022-11-15T15:20:59;10.20;91.90
27368;DHT22;14839;48.106;11.618;2022-11-15T15:23:27;10.10;92.40
27368;DHT22;14839;48.106;11.618;2022-11-15T15:25:56;10.00;93.30
27368;DHT22;14839;48.106;11.618;2022-11-15T15:28:21;9.90;94.30
27368;DHT22;14839;48.106;11.618;2022-11-15T15:30:47;9.70;94.60
27368;DHT22;14839;48.106;11.618;2022-11-15T15:33:13;9.60;94.60
27368;DHT22;14839;48.106;11.618;2022-11-15T15:35:38;9.40;94.60
27368;DHT22;14839;48.106;11.618;2022-11-15T15:38:04;9.30;94.60
27368;DHT22;14839;48.106;11.618;2022-11-15T15:40:32;9.20;94.60
27368;DHT22;14839;48.106;11.618;2022-11-15T15:42:58;9.10;94.60
27368;DHT22;14839;48.106;11.618;2022-11-15T15:45:25;8.90;94.60
27368;DHT22;14839;48.106;11.618;2022-11-15T15:47:52;8.90;94.60
27368;DHT22;14839;48.106;11.618;2022-11-15T15:50:25;8.90;94.60
27368;DHT22;14839;48.106;11.618;2022-11-15T15:52:52;8.80;94.60
27368;DHT22;14839;48.106;11.618;2022-11-15T15:55:18;8.70;94.60
27368;DHT22;14839;48.106;11.618;2022-11-15T15:57:51;8.70;94.60
27368;DHT22;14839;48.106;11.618;2022-11-15T16:00:18;8.60;94.60
27368;DHT22;14839;48.106;11.618;2022-11-15T16:02:44;8.60;94.60
27368;DHT22;14839;48.106;11.618;2022-11-15T16:05:10;8.50;94.60
27368;DHT22;14839;48.106;11.618;2022-11-15T16:07:37;8.50;94.60
27368;DHT22;14839;48.106;11.618;2022-11-15T16:10:31;8.40;94.60
27368;DHT22;14839;48.106;11.618;2022-11-15T16:12:57;8.40;94.60
27368;DHT22;14839;48.106;11.618;2022-11-15T16:15:29;8.40;94.60
27368;DHT22;14839;48.106;11.618;2022-11-15T16:17:57;8.40;94.60
27368;DHT22;14839;48.106;11.618;2022-11-15T16:20:46;8.30;94.60
27368;DHT22;14839;48.106;11.618;2022-11-15T16:23:16;8.30;94.60
27368;DHT22;14839;48.106;11.618;2022-11-15T16:25:53;8.30;94.60
27368;DHT22;14839;48.106;11.618;2022-11-15T16:28:29;8.30;94.60
27368;DHT22;14839;48.106;11.618;2022-11-15T16:31:11;8.30;94.60
27368;DHT22;14839;48.106;11.618;2022-11-15T16:33:37;8.30;94.60
27368;DHT22;14839;48.106;11.618;2022-11-15T16:36:04;8.30;94.60
27368;DHT22;14839;48.106;11.618;2022-11-15T16:38:31;8.30;94.60
27368;DHT22;14839;48.106;11.618;2022-11-15T16:40:56;8.30;94.60
27368;DHT22;14839;48.106;11.618;2022-11-15T16:43:22;8.30;94.60
27368;DHT22;14839;48.106;11.618;2022-11-15T16:45:49;8.20;94.60
27368;DHT22;14839;48.106;11.618;2022-11-15T16:48:27;8.20;94.60
27368;DHT22;14839;48.106;11.618;2022-11-15T16:50:57;8.20;94.60
27368;DHT22;14839;48.106;11.618;2022-11-15T16:53:23;8.20;94.60
27368;DHT22;14839;48.106;11.618;2022-11-15T16:55:49;8.20;94.60
27368;DHT22;14839;48.106;11.618;2022-11-15T16:58:15;8.10;94.60
27368;DHT22;14839;48.106;11.618;2022-11-15T17:00:40;8.10;94.60
27368;DHT22;14839;48.106;11.618;2022-11-15T17:03:06;8.10;94.60
27368;DHT22;14839;48.106;11.618;2022-11-15T17:05:32;8.10;94.60
27368;DHT22;14839;48.106;11.618;2022-11-15T17:07:57;8.10;94.60
27368;DHT22;14839;48.106;11.618;2022-11-15T17:10:24;8.00;94.60
27368;DHT22;14839;48.106;11.618;2022-11-15T17:12:50;8.10;94.60
27368;DHT22;14839;48.106;11.618;2022-11-15T17:15:17;8.20;94.60
27368;DHT22;14839;48.106;11.618;2022-11-15T17:17:43;8.10;94.60
27368;DHT22;14839;48.106;11.618;2022-11-15T17:20:16;8.00;94.60
27368;DHT22;14839;48.106;11.618;2022-11-15T17:22:42;8.00;94.60
27368;DHT22;14839;48.106;11.618;2022-11-15T17:25:08;7.90;94.60
27368;DHT22;14839;48.106;11.618;2022-11-15T17:27:34;7.80;94.60
27368;DHT22;14839;48.106;11.618;2022-11-15T17:29:59;7.80;94.60
27368;DHT22;14839;48.106;11.618;2022-11-15T17:32:25;7.70;94.60
27368;DHT22;14839;48.106;11.618;2022-11-15T17:34:51;7.70;94.60
27368;DHT22;14839;48.106;11.618;2022-11-15T17:37:16;7.80;94.60
27368;DHT22;14839;48.106;11.618;2022-11-15T17:39:45;7.80;94.60
27368;DHT22;14839;48.106;11.618;2022-11-15T17:42:11;7.60;94.60
27368;DHT22;14839;48.106;11.618;2022-11-15T17:44:39;7.50;94.60
27368;DHT22;14839;48.106;11.618;2022-11-15T17:47:05;7.50;94.60
27368;DHT22;14839;48.106;11.618;2022-11-15T17:49:32;7.50;94.60
27368;DHT22;14839;48.106;11.618;2022-11-15T17:52:02;7.50;94.60
27368;DHT22;14839;48.106;11.618;2022-11-15T17:54:28;7.50;94.60
27368;DHT22;14839;48.106;11.618;2022-11-15T17:56:53;7.50;94.60
27368;DHT22;14839;48.106;11.618;2022-11-15T17:59:19;7.40;94.60
27368;DHT22;14839;48.106;11.618;2022-11-15T18:01:44;7.30;94.60
27368;DHT22;14839;48.106;11.618;2022-11-15T18:04:10;7.20;94.60
27368;DHT22;14839;48.106;11.618;2022-11-15T18:06:36;7.10;94.60
27368;DHT22;14839;48.106;11.618;2022-11-15T18:09:03;7.10;94.60
27368;DHT22;14839;48.106;11.618;2022-11-15T18:11:40;7.10;94.60
27368;DHT22;14839;48.106;11.618;2022-11-15T18:14:09;7.10;94.60
27368;DHT22;14839;48.106;11.618;2022-11-15T18:16:37;7.10;94.60
27368;DHT22;14839;48.106;11.618;2022-11-15T18:19:04;7.10;94.60
27368;DHT22;14839;48.106;11.618;2022-11-15T18:21:33;7.00;94.60
27368;DHT22;14839;48.106;11.618;2022-11-15T18:24:01;7.00;94.60
27368;DHT22;14839;48.106;11.618;2022-11-15T18:26:28;7.00;94.60
27368;DHT22;14839;48.106;11.618;2022-11-15T18:28:57;6.90;94.60
27368;DHT22;14839;48.106;11.618;2022-11-15T18:31:28;6.80;94.60
27368;DHT22;14839;48.106;11.618;2022-11-15T18:33:54;6.70;94.60
27368;DHT22;14839;48.106;11.618;2022-11-15T18:36:24;6.60;94.60
27368;DHT22;14839;48.106;11.618;2022-11-15T18:38:58;6.60;94.60
27368;DHT22;14839;48.106;11.618;2022-11-15T18:41:25;6.50;94.60
27368;DHT22;14839;48.106;11.618;2022-11-15T18:43:54;6.50;94.60
27368;DHT22;14839;48.106;11.618;2022-11-15T18:46:22;6.50;94.60
27368;DHT22;14839;48.106;11.618;2022-11-15T18:48:49;6.50;94.60
27368;DHT22;14839;48.106;11.618;2022-11-15T18:51:21;6.50;94.60
27368;DHT22;14839;48.106;11.618;2022-11-15T18:53:47;6.60;94.60
27368;DHT22;14839;48.106;11.618;2022-11-15T18:56:15;6.70;94.60
27368;DHT22;14839;48.106;11.618;2022-11-15T18:58:44;6.70;94.60
27368;DHT22;14839;48.106;11.618;2022-11-15T19:01:14;6.70;94.60
27368;DHT22;14839;48.106;11.618;2022-11-15T19:03:42;6.80;94.60
27368;DHT22;14839;48.106;11.618;2022-11-15T19:06:13;6.90;94.60
27368;DHT22;14839;48.106;11.618;2022-11-15T19:08:40;6.80;94.60
27368;DHT22;14839;48.106;11.618;2022-11-15T19:11:17;6.80;94.60
27368;DHT22;14839;48.106;11.618;2022-11-15T19:13:43;6.70;94.60
27368;DHT22;14839;48.106;11.618;2022-11-15T19:16:12;6.70;94.60
27368;DHT22;14839;48.106;11.618;2022-11-15T19:18:39;6.70;94.60
27368;DHT22;14839;48.106;11.618;2022-11-15T19:21:07;6.80;94.60
27368;DHT22;14839;48.106;11.618;2022-11-15T19:23:34;6.80;94.60
27368;DHT22;14839;48.106;11.618;2022-11-15T19:26:00;6.80;94.60
27368;DHT22;14839;48.106;11.618;2022-11-15T19:28:27;6.80;94.60
27368;DHT22;14839;48.106;11.618;2022-11-15T19:30:53;6.90;94.60
27368;DHT22;14839;48.106;11.618;2022-11-15T19:33:26;6.80;94.60
27368;DHT22;14839;48.106;11.618;2022-11-15T19:35:59;6.70;94.60
27368;DHT22;14839;48.106;11.618;2022-11-15T19:38:24;6.70;94.60
27368;DHT22;14839;48.106;11.618;2022-11-15T19:41:03;6.60;94.60
27368;DHT22;14839;48.106;11.618;2022-11-15T19:43:30;6.60;94.60
27368;DHT22;14839;48.106;11.618;2022-11-15T19:46:00;6.60;94.60
27368;DHT22;14839;48.106;11.618;2022-11-15T19:48:27;6.50;94.60
27368;DHT22;14839;48.106;11.618;2022-11-15T19:50:53;6.50;94.60
27368;DHT22;14839;48.106;11.618;2022-11-15T19:53:19;6.50;94.60
27368;DHT22;14839;48.106;11.618;2022-11-15T19:55:59;6.50;94.60
27368;DHT22;14839;48.106;11.618;2022-11-15T19:58:25;6.40;94.60
27368;DHT22;14839;48.106;11.618;2022-11-15T20:00:58;6.40;94.60
27368;DHT22;14839;48.106;11.618;2022-11-15T20:03:23;6.50;94.60
27368;DHT22;14839;48.106;11.618;2022-11-15T20:05:49;6.60;94.60
27368;DHT22;14839;48.106;11.618;2022-11-15T20:08:15;6.60;94.60
27368;DHT22;14839;48.106;11.618;2022-11-15T20:10:42;6.60;94.60
27368;DHT22;14839;48.106;11.618;2022-11-15T20:13:10;6.60;94.60
27368;DHT22;14839;48.106;11.618;2022-11-15T20:15:35;6.60;94.60
27368;DHT22;14839;48.106;11.618;2022-11-15T20:18:01;6.60;94.60
27368;DHT22;14839;48.106;11.618;2022-11-15T20:20:27;6.60;94.60
27368;DHT22;14839;48.106;11.618;2022-11-15T20:22:52;6.60;94.60
27368;DHT22;14839;48.106;11.618;2022-11-15T20:25:19;6.60;94.60
27368;DHT22;14839;48.106;11.618;2022-11-15T20:27:44;6.70;94.60
27368;DHT22;14839;48.106;11.618;2022-11-15T20:30:10;6.60;94.60
27368;DHT22;14839;48.106;11.618;2022-11-15T20:32:36;6.60;94.60
27368;DHT22;14839;48.106;11.618;2022-11-15T20:35:01;6.60;94.60
27368;DHT22;14839;48.106;11.618;2022-11-15T20:37:27;6.70;94.60
27368;DHT22;14839;48.106;11.618;2022-11-15T20:39:53;6.60;94.60
27368;DHT22;14839;48.106;11.618;2022-11-15T20:42:18;6.70;94.60
27368;DHT22;14839;48.106;11.618;2022-11-15T20:44:44;6.80;94.60
27368;DHT22;14839;48.106;11.618;2022-11-15T20:47:09;6.80;94.60
27368;DHT22;14839;48.106;11.618;2022-11-15T20:49:35;6.80;94.60
27368;DHT22;14839;48.106;11.618;2022-11-15T20:52:01;6.90;94.60
27368;DHT22;14839;48.106;11.618;2022-11-15T20:54:26;6.90;94.60
27368;DHT22;14839;48.106;11.618;2022-11-15T20:56:52;7.00;94.60
27368;DHT22;14839;48.106;11.618;2022-11-15T20:59:17;6.90;94.60
27368;DHT22;14839;48.106;11.618;2022-11-15T21:01:43;6.80;94.60
27368;DHT22;14839;48.106;11.618;2022-11-15T21:04:11;6.80;94.60
27368;DHT22;14839;48.106;11.618;2022-11-15T21:06:36;6.70;94.60
27368;DHT22;14839;48.106;11.618;2022-11-15T21:09:02;6.70;94.60
27368;DHT22;14839;48.106;11.618;2022-11-15T21:11:46;6.80;94.60
27368;DHT22;14839;48.106;11.618;2022-11-15T21:14:30;6.70;94.60
27368;DHT22;14839;48.106;11.618;2022-11-15T21:16:56;6.80;94.60
27368;DHT22;14839;48.106;11.618;2022-11-15T21:19:21;6.90;94.60
27368;DHT22;14839;48.106;11.618;2022-11-15T21:21:47;6.80;94.60
27368;DHT22;14839;48.106;11.618;2022-11-15T21:24:13;6.80;94.60
27368;DHT22;14839;48.106;11.618;2022-11-15T21:26:38;6.80;94.60
27368;DHT22;14839;48.106;11.618;2022-11-15T21:29:04;6.80;94.60
27368;DHT22;14839;48.106;11.618;2022-11-15T21:31:30;6.80;94.60
27368;DHT22;14839;48.106;11.618;2022-11-15T21:33:56;6.70;94.60
27368;DHT22;14839;48.106;11.618;2022-11-15T21:36:22;6.80;94.60
27368;DHT22;14839;48.106;11.618;2022-11-15T21:38:49;6.80;94.60
27368;DHT22;14839;48.106;11.618;2022-11-15T21:41:14;6.80;94.60
27368;DHT22;14839;48.106;11.618;2022-11-15T21:43:40;6.70;94.60
27368;DHT22;14839;48.106;11.618;2022-11-15T21:46:06;6.70;94.60
27368;DHT22;14839;48.106;11.618;2022-11-15T21:48:33;6.70;94.60
27368;DHT22;14839;48.106;11.618;2022-11-15T21:51:01;6.70;94.60
27368;DHT22;14839;48.106;11.618;2022-11-15T21:53:28;6.80;94.60
27368;DHT22;14839;48.106;11.618;2022-11-15T21:55:54;6.70;94.60
27368;DHT22;14839;48.106;11.618;2022-11-15T21:58:20;6.60;94.60
27368;DHT22;14839;48.106;11.618;2022-11-15T22:00:46;6.60;94.60
27368;DHT22;14839;48.106;11.618;2022-11-15T22:03:31;6.60;94.60
27368;DHT22;14839;48.106;11.618;2022-11-15T22:05:56;6.50;94.60
27368;DHT22;14839;48.106;11.618;2022-11-15T22:08:22;6.60;94.60
27368;DHT22;14839;48.106;11.618;2022-11-15T22:10:49;6.60;94.60